createdAt,value
2019-06-08T00:01:58.998Z,59.73
2019-06-08T00:04:34.378Z,55.14
2019-06-08T00:07:14.771Z,56.65
2019-06-08T00:09:50.252Z,58.44
2019-06-08T00:12:24.859Z,59.92
2019-06-08T00:14:59.671Z,60.77
2019-06-08T00:17:38.385Z,61.30
2019-06-08T00:20:10.594Z,62.36
2019-06-08T00:22:45.585Z,60.12
2019-06-08T00:25:20.830Z,52.02
2019-06-08T00:27:55.858Z,50.66
2019-06-08T00:30:30.776Z,53.13
2019-06-08T00:33:04.788Z,54.90
2019-06-08T00:35:39.334Z,56.44
2019-06-08T00:38:16.796Z,57.65
2019-06-08T00:40:51.321Z,58.97
2019-06-08T00:43:25.550Z,60.20
2019-06-08T00:46:01.770Z,61.20
2019-06-08T00:48:37.946Z,62.01
2019-06-08T00:51:11.933Z,62.82
2019-06-08T00:53:45.728Z,60.05
2019-06-08T00:56:19.969Z,52.20
2019-06-08T00:58:54.412Z,50.76
2019-06-08T01:01:30.785Z,53.39
2019-06-08T01:04:04.939Z,55.50
2019-06-08T01:06:40.033Z,57.04
2019-06-08T01:09:15.021Z,58.37
2019-06-08T01:11:50.424Z,59.46
2019-06-08T01:14:27.104Z,60.42
2019-06-08T01:17:03.200Z,61.09
2019-06-08T01:19:38.197Z,62.09
2019-06-08T01:22:12.455Z,63.20
2019-06-08T01:24:47.072Z,60.13
2019-06-08T01:27:23.832Z,52.03
2019-06-08T01:29:58.434Z,51.02
2019-06-08T01:32:34.080Z,53.67
2019-06-08T01:35:09.646Z,55.83
2019-06-08T01:37:44.109Z,57.43
2019-06-08T01:40:21.220Z,58.92
2019-06-08T01:42:56.121Z,60.26
2019-06-08T01:45:33.761Z,61.36
2019-06-08T01:48:19.942Z,62.30
2019-06-08T01:50:45.884Z,60.02
2019-06-08T01:53:19.780Z,52.02
2019-06-08T01:55:53.866Z,50.93
2019-06-08T01:58:29.484Z,53.54
2019-06-08T02:01:04.422Z,55.48
2019-06-08T02:03:39.855Z,57.30
2019-06-08T02:06:15.242Z,58.67
2019-06-08T02:08:49.503Z,59.86
2019-06-08T02:11:22.852Z,60.83
2019-06-08T02:13:58.778Z,61.82
2019-06-08T02:16:35.461Z,62.98
2019-06-08T02:19:10.565Z,60.19
2019-06-08T02:21:44.575Z,52.06
2019-06-08T02:24:35.461Z,51.07
2019-06-08T02:27:20.224Z,53.48
2019-06-08T02:31:11.571Z,55.83
2019-06-08T02:33:53.911Z,57.88
2019-06-08T02:36:38.085Z,59.28
2019-06-08T02:39:13.973Z,60.40
2019-06-08T02:41:49.553Z,61.30
2019-06-08T02:44:28.157Z,62.10
2019-06-08T02:47:04.157Z,63.32
2019-06-08T02:49:39.744Z,60.73
2019-06-08T02:52:29.879Z,55.36
2019-06-08T02:55:07.551Z,57.25
2019-06-08T02:57:44.710Z,59.22
2019-06-08T03:00:25.635Z,60.78
2019-06-08T03:03:08.568Z,62.08
2019-06-08T03:05:54.498Z,63.28
2019-06-08T03:08:32.389Z,59.90
2019-06-08T03:11:09.373Z,55.25
2019-06-08T03:13:47.017Z,57.37
2019-06-08T03:16:43.325Z,59.53
2019-06-08T03:19:56.394Z,61.40
2019-06-08T03:22:38.853Z,62.83
2019-06-08T03:25:22.643Z,59.61
2019-06-08T03:28:00.313Z,55.28
2019-06-08T03:30:44.587Z,57.44
2019-06-08T03:33:16.225Z,59.54
2019-06-08T03:35:56.824Z,61.18
2019-06-08T03:38:26.032Z,62.54
2019-06-08T03:41:02.203Z,59.55
2019-06-08T03:43:38.153Z,55.19
2019-06-08T03:46:16.543Z,57.49
2019-06-08T03:49:40.504Z,59.65
2019-06-08T03:52:05.786Z,61.37
2019-06-08T03:55:46.617Z,62.74
2019-06-08T03:58:28.857Z,56.52
2019-06-08T04:01:31.820Z,54.00
2019-06-08T04:04:07.191Z,56.55
2019-06-08T04:06:43.706Z,58.58
2019-06-08T04:09:18.555Z,60.17
2019-06-08T04:11:53.483Z,61.46
2019-06-08T04:14:28.379Z,62.61
2019-06-08T04:17:04.032Z,60.22
2019-06-08T04:20:01.620Z,52.61
2019-06-08T04:22:16.598Z,51.26
2019-06-08T04:24:50.702Z,54.07
2019-06-08T04:27:26.002Z,56.37
2019-06-08T04:30:01.740Z,57.80
2019-06-08T04:32:36.147Z,59.27
2019-06-08T04:35:11.041Z,60.30
2019-06-08T04:37:46.756Z,61.55
2019-06-08T04:40:21.060Z,62.27
2019-06-08T04:42:56.207Z,62.98
2019-06-08T04:45:32.032Z,60.40
2019-06-08T04:48:11.567Z,53.20
2019-06-08T04:50:47.411Z,51.68
2019-06-08T04:53:20.754Z,54.33
2019-06-08T04:55:54.055Z,56.80
2019-06-08T04:58:27.776Z,58.34
2019-06-08T05:01:01.372Z,59.72
2019-06-08T05:03:34.829Z,61.20
2019-06-08T05:06:08.332Z,61.93
2019-06-08T05:08:42.993Z,62.94
2019-06-08T05:11:16.527Z,60.26
2019-06-08T05:13:49.968Z,53.07
2019-06-08T05:16:23.389Z,51.87
2019-06-08T05:18:56.688Z,54.56
2019-06-08T05:21:30.064Z,56.64
2019-06-08T05:24:03.858Z,58.03
2019-06-08T05:26:39.641Z,59.31
2019-06-08T05:29:14.546Z,60.41
2019-06-08T05:31:49.617Z,61.62
2019-06-08T05:34:23.247Z,62.40
2019-06-08T05:36:56.603Z,59.15
2019-06-08T05:39:30.059Z,55.62
2019-06-08T05:42:03.406Z,57.61
2019-06-08T05:44:36.894Z,58.69
2019-06-08T05:47:11.937Z,60.24
2019-06-08T05:49:45.801Z,60.84
2019-06-08T05:52:19.423Z,62.00
2019-06-08T05:54:52.891Z,62.69
2019-06-08T05:57:26.439Z,58.75
2019-06-08T06:00:00.078Z,55.37
2019-06-08T06:02:33.481Z,56.66
2019-06-08T06:05:07.608Z,57.89
2019-06-08T06:07:41.136Z,59.17
2019-06-08T06:10:15.278Z,60.23
2019-06-08T06:12:49.086Z,61.06
2019-06-08T06:15:23.093Z,61.19
2019-06-08T06:17:56.587Z,62.22
2019-06-08T06:20:30.115Z,62.75
2019-06-08T06:23:03.703Z,58.16
2019-06-08T06:25:37.247Z,55.07
2019-06-08T06:28:10.469Z,55.96
2019-06-08T06:30:44.239Z,57.36
2019-06-08T06:33:17.913Z,58.45
2019-06-08T06:35:52.166Z,58.90
2019-06-08T06:38:25.657Z,59.77
2019-06-08T06:40:58.932Z,60.10
2019-06-08T06:43:32.296Z,60.83
2019-06-08T06:46:05.722Z,61.35
2019-06-08T06:48:39.039Z,61.97
2019-06-08T06:51:25.182Z,62.59
2019-06-08T06:53:48.801Z,58.68
2019-06-08T06:56:24.262Z,54.92
2019-06-08T06:58:57.640Z,56.48
2019-06-08T07:01:31.192Z,57.50
2019-06-08T07:04:04.583Z,58.80
2019-06-08T07:06:38.104Z,59.50
2019-06-08T07:09:11.638Z,59.81
2019-06-08T07:11:44.927Z,60.67
2019-06-08T07:14:18.251Z,60.90
2019-06-08T07:16:51.985Z,61.61
2019-06-08T07:19:25.545Z,62.06
2019-06-08T07:21:58.845Z,62.62
2019-06-08T07:24:33.363Z,57.61
2019-06-08T07:27:07.664Z,53.69
2019-06-08T07:29:41.596Z,54.68
2019-06-08T07:32:14.978Z,55.89
2019-06-08T07:34:49.915Z,57.03
2019-06-08T07:37:23.832Z,57.48
2019-06-08T07:39:57.646Z,58.67
2019-06-08T07:42:31.684Z,59.43
2019-06-08T07:45:05.314Z,59.98
2019-06-08T07:47:39.151Z,60.31
2019-06-08T07:50:13.155Z,60.64
2019-06-08T07:52:47.968Z,61.01
2019-06-08T07:55:38.294Z,61.02
2019-06-08T07:58:13.589Z,61.71
2019-06-08T08:00:47.101Z,61.10
2019-06-08T08:03:20.542Z,61.58
2019-06-08T08:05:55.029Z,62.22
2019-06-08T08:08:29.408Z,61.96
2019-06-08T08:11:03.670Z,61.73
2019-06-08T08:13:37.462Z,61.33
2019-06-08T08:16:11.153Z,61.92
2019-06-08T08:18:44.731Z,62.22
2019-06-08T08:21:23.219Z,61.56
2019-06-08T08:23:53.480Z,54.96
2019-06-08T08:26:28.129Z,50.18
2019-06-08T08:29:03.216Z,52.33
2019-06-08T08:31:38.672Z,52.62
2019-06-08T08:34:18.290Z,53.82
2019-06-08T08:36:54.159Z,54.67
2019-06-08T08:39:31.412Z,54.68
2019-06-08T08:42:17.983Z,54.80
2019-06-08T08:44:59.329Z,55.10
2019-06-08T08:47:38.433Z,53.27
2019-06-08T08:50:13.098Z,53.86
2019-06-08T08:52:47.702Z,51.95
2019-06-08T08:56:30.627Z,51.88
2019-06-08T08:59:30.845Z,52.37
2019-06-08T09:02:12.046Z,52.56
2019-06-08T09:04:49.123Z,52.56
2019-06-08T09:07:23.729Z,52.31
2019-06-08T09:10:03.518Z,50.27
2019-06-08T09:12:37.685Z,50.35
2019-06-08T09:15:13.257Z,49.97
2019-06-08T09:18:03.689Z,48.00
2019-06-08T09:20:47.762Z,47.54
2019-06-08T09:23:27.976Z,47.98
2019-06-08T09:27:09.532Z,48.73
2019-06-08T09:29:45.123Z,49.33
2019-06-08T09:32:18.826Z,48.96
2019-06-08T09:35:02.785Z,49.37
2019-06-08T09:37:37.485Z,49.05
2019-06-08T09:40:10.769Z,48.71
2019-06-08T09:42:45.100Z,48.62
2019-06-08T09:48:41.842Z,47.37
2019-06-08T09:51:29.175Z,46.99
2019-06-08T09:54:06.065Z,46.56
2019-06-08T09:56:38.138Z,46.90
2019-06-08T09:59:15.003Z,45.89
2019-06-08T10:01:47.120Z,45.66
2019-06-08T10:04:20.838Z,44.98
2019-06-08T10:06:54.560Z,44.63
2019-06-08T10:09:28.433Z,44.57
2019-06-08T10:12:04.597Z,43.71
2019-06-08T10:36:58.876Z,43.26
2019-06-08T10:39:32.492Z,43.81
2019-06-08T10:42:07.159Z,43.60
2019-06-08T10:44:40.634Z,43.66
2019-06-08T10:47:14.678Z,45.32
2019-06-08T10:49:49.028Z,44.66
2019-06-08T10:52:22.235Z,44.74
2019-06-08T10:54:55.322Z,43.90
2019-06-08T10:57:28.946Z,44.45
2019-06-08T11:00:12.422Z,45.01
2019-06-08T11:02:37.595Z,45.21
2019-06-08T11:05:14.045Z,45.34
2019-06-08T11:07:48.036Z,46.08
2019-06-08T11:10:21.461Z,46.16
2019-06-08T11:12:54.494Z,46.07
2019-06-08T11:15:29.856Z,46.07
2019-06-08T11:18:06.653Z,45.65
2019-06-08T11:20:38.209Z,44.40
2019-06-08T11:23:12.579Z,42.55
2019-06-08T11:25:45.978Z,43.63
2019-06-08T11:28:19.307Z,42.45
2019-06-08T11:30:52.479Z,42.70
2019-06-08T11:33:25.703Z,41.84
2019-06-08T11:36:02.972Z,42.20
2019-06-08T11:38:33.637Z,42.63
2019-06-08T11:41:12.182Z,43.12
2019-06-08T11:43:42.723Z,42.93
2019-06-08T11:46:18.991Z,42.79
2019-06-08T11:48:51.420Z,43.77
2019-06-08T11:51:24.548Z,43.81
2019-06-08T11:53:59.416Z,43.49
2019-06-08T11:56:33.885Z,43.55
2019-06-08T11:59:13.800Z,43.55
2019-06-08T12:01:51.536Z,43.85
2019-06-08T12:04:31.959Z,45.49
2019-06-08T12:07:31.590Z,44.52
2019-06-08T12:19:57.642Z,46.24
2019-06-08T12:22:30.819Z,46.75
2019-06-08T12:25:04.227Z,47.03
2019-06-08T12:27:40.134Z,47.30
2019-06-08T12:30:20.498Z,47.53
2019-06-08T13:01:40.611Z,48.06
2019-06-08T13:04:14.018Z,48.78
2019-06-08T13:06:48.336Z,48.64
2019-06-08T13:09:21.615Z,49.92
2019-06-08T13:11:57.018Z,48.97
2019-06-08T13:14:29.915Z,48.77
2019-06-08T13:17:03.191Z,49.45
2019-06-08T13:19:38.756Z,48.82
2019-06-08T13:22:12.746Z,49.32
2019-06-08T13:24:47.854Z,49.71
2019-06-08T13:27:23.025Z,48.63
2019-06-08T13:29:57.756Z,49.19
2019-06-08T13:32:30.804Z,48.94
2019-06-08T13:35:04.225Z,50.15
2019-06-08T13:37:39.031Z,48.48
2019-06-08T13:40:15.220Z,49.19
2019-06-08T13:42:51.225Z,49.07
2019-06-08T13:45:24.502Z,47.46
2019-06-08T13:47:58.692Z,48.18
2019-06-08T13:50:32.175Z,47.19
2019-06-08T13:53:10.620Z,46.86
2019-06-08T13:55:55.009Z,47.95
2019-06-08T13:58:22.282Z,46.47
2019-06-08T14:00:52.105Z,46.96
2019-06-08T14:03:27.553Z,46.53
2019-06-08T14:06:00.253Z,45.72
2019-06-08T14:08:34.043Z,44.72
2019-06-08T14:11:09.901Z,43.52
2019-06-08T14:13:43.217Z,42.67
2019-06-08T14:16:20.174Z,40.74
2019-06-08T14:18:51.572Z,41.95
2019-06-08T14:21:31.965Z,40.54
2019-06-08T14:24:00.849Z,40.04
2019-06-08T14:26:37.385Z,39.37
2019-06-08T14:29:10.047Z,40.22
2019-06-08T14:31:45.195Z,37.81
2019-06-08T14:34:21.805Z,37.14
2019-06-08T14:36:54.678Z,37.38
2019-06-08T14:39:31.021Z,37.14
2019-06-08T14:42:02.724Z,35.61
2019-06-08T14:44:38.067Z,35.58
2019-06-08T14:47:14.652Z,34.30
2019-06-08T14:49:48.974Z,34.63
2019-06-08T14:52:23.813Z,34.80
2019-06-08T14:54:58.659Z,35.65
2019-06-08T14:57:32.423Z,36.13
2019-06-08T15:00:09.637Z,35.16
2019-06-08T15:02:41.932Z,34.08
2019-06-08T15:05:18.159Z,34.95
2019-06-08T15:07:50.796Z,34.91
2019-06-08T15:10:24.057Z,35.12
2019-06-08T15:12:57.832Z,35.12
2019-06-08T15:15:32.281Z,34.85
2019-06-08T15:18:08.403Z,35.51
2019-06-08T15:20:40.678Z,34.80
2019-06-08T15:23:16.827Z,35.46
2019-06-08T15:25:50.059Z,34.12
2019-06-08T15:28:24.685Z,34.44
2019-06-08T15:31:00.048Z,35.13
2019-06-08T15:33:33.634Z,34.39
2019-06-08T15:36:08.530Z,35.21
2019-06-08T15:38:42.951Z,35.72
2019-06-08T15:41:18.052Z,35.41
2019-06-08T15:43:53.861Z,34.95
2019-06-08T15:46:28.561Z,34.57
2019-06-08T15:49:01.816Z,35.19
2019-06-08T15:51:40.160Z,35.69
2019-06-08T15:54:10.110Z,34.94
2019-06-08T15:56:49.441Z,34.72
2019-06-08T15:59:18.170Z,34.68
2019-06-08T16:01:51.439Z,34.24
2019-06-08T16:04:25.714Z,34.12
2019-06-08T16:06:59.253Z,33.72
2019-06-08T16:09:32.658Z,33.76
2019-06-08T16:12:06.072Z,33.30
2019-06-08T16:14:41.453Z,34.02
2019-06-08T16:17:14.644Z,34.54
2019-06-08T16:19:48.014Z,33.98
2019-06-08T16:22:21.189Z,34.03
2019-06-08T16:24:54.434Z,34.02
2019-06-08T16:27:27.739Z,34.70
2019-06-08T16:30:08.666Z,33.62
2019-06-08T16:32:36.603Z,34.22
2019-06-08T16:35:10.683Z,34.55
2019-06-08T16:37:43.980Z,34.87
2019-06-08T16:40:17.224Z,34.75
2019-06-08T16:42:50.891Z,34.93
2019-06-08T16:45:24.096Z,34.73
2019-06-08T16:47:57.367Z,34.99
2019-06-08T16:50:30.614Z,34.61
2019-06-08T16:53:03.858Z,34.88
2019-06-08T16:55:38.370Z,34.81
2019-06-08T16:58:11.875Z,34.86
2019-06-08T17:00:45.525Z,34.68
2019-06-08T17:03:18.885Z,34.13
2019-06-08T17:05:52.206Z,34.47
2019-06-08T17:08:25.407Z,34.49
2019-06-08T17:10:58.582Z,34.82
2019-06-08T17:13:31.985Z,35.09
2019-06-08T17:16:05.221Z,34.81
2019-06-08T17:18:38.567Z,34.90
2019-06-08T17:21:11.840Z,35.07
2019-06-08T17:23:44.966Z,35.36
2019-06-08T17:26:18.163Z,35.53
2019-06-08T17:28:51.331Z,35.18
2019-06-08T17:31:24.583Z,35.60
2019-06-08T17:33:57.887Z,35.69
2019-06-08T17:36:31.931Z,35.02
2019-06-08T17:39:06.722Z,35.57
2019-06-08T17:41:40.225Z,35.87
2019-06-08T17:44:13.533Z,35.96
2019-06-08T17:46:48.298Z,36.12
2019-06-08T17:49:22.972Z,36.50
2019-06-08T17:51:56.197Z,36.21
2019-06-08T17:54:29.387Z,36.41
2019-06-08T17:57:02.603Z,36.67
2019-06-08T17:59:35.875Z,36.93
2019-06-08T18:02:12.095Z,37.13
2019-06-08T18:04:44.936Z,37.08
2019-06-08T18:07:18.239Z,37.12
2019-06-08T18:09:51.612Z,37.27
2019-06-08T18:12:27.011Z,37.50
2019-06-08T18:14:59.659Z,37.34
2019-06-08T18:17:33.990Z,38.07
2019-06-08T18:20:08.394Z,38.50
2019-06-08T18:22:44.388Z,39.18
2019-06-08T18:25:18.071Z,39.36
2019-06-08T18:28:06.591Z,39.75
2019-06-08T18:30:27.605Z,39.84
2019-06-08T18:33:01.265Z,39.70
2019-06-08T18:35:37.357Z,40.14
2019-06-08T18:38:09.547Z,40.19
2019-06-08T18:40:43.471Z,40.54
2019-06-08T18:43:17.104Z,40.75
2019-06-08T18:45:51.923Z,42.30
2019-06-08T18:48:25.268Z,41.88
2019-06-08T18:50:58.537Z,41.86
2019-06-08T18:53:49.153Z,42.39
2019-06-08T18:56:12.355Z,42.58
2019-06-08T18:58:53.371Z,42.72
2019-06-08T19:01:27.511Z,45.63
2019-06-08T19:04:04.498Z,43.53
2019-06-08T19:06:40.564Z,43.51
2019-06-08T19:09:13.686Z,43.42
2019-06-08T19:11:48.709Z,44.18
2019-06-08T19:14:23.038Z,43.80
2019-06-08T19:16:58.144Z,43.06
2019-06-08T19:19:33.832Z,42.73
2019-06-08T19:22:10.249Z,42.78
2019-06-08T19:24:49.452Z,42.89
2019-06-08T19:27:21.852Z,43.42
2019-06-08T19:29:57.762Z,45.04
2019-06-08T19:32:30.951Z,45.02
2019-06-08T19:35:04.364Z,45.13
2019-06-08T19:37:39.666Z,45.47
2019-06-08T19:40:13.320Z,45.59
2019-06-08T19:42:55.440Z,45.81
2019-06-08T19:45:21.942Z,46.01
2019-06-08T19:47:58.151Z,46.43
2019-06-08T19:50:31.791Z,46.85
2019-06-08T19:53:07.362Z,47.28
2019-06-08T19:55:41.202Z,47.85
2019-06-08T19:58:14.677Z,48.18
2019-06-08T20:00:52.308Z,48.67
2019-06-08T20:03:22.894Z,49.59
2019-06-08T20:05:56.625Z,50.08
2019-06-08T20:08:32.513Z,50.69
2019-06-08T20:11:08.294Z,50.32
2019-06-08T20:13:45.351Z,49.74
2019-06-08T20:16:23.288Z,49.65
2019-06-08T20:18:58.606Z,49.41
2019-06-08T20:21:32.671Z,50.29
2019-06-08T20:24:10.151Z,49.98
2019-06-08T20:26:44.682Z,49.55
2019-06-08T20:29:20.082Z,49.78
2019-06-08T20:31:53.879Z,49.85
2019-06-08T20:34:27.282Z,49.52
2019-06-08T20:37:02.068Z,49.61
2019-06-08T20:39:38.011Z,49.21
2019-06-08T20:42:13.239Z,49.43
2019-06-08T20:44:51.567Z,50.95
2019-06-08T20:47:27.643Z,52.27
2019-06-08T20:50:02.744Z,51.74
2019-06-08T20:52:37.817Z,50.26
2019-06-08T20:55:13.859Z,50.61
2019-06-08T20:57:52.346Z,50.26
2019-06-08T21:00:30.818Z,50.17
2019-06-08T21:03:07.949Z,50.28
2019-06-08T21:11:19.706Z,51.79
2019-06-08T21:19:20.454Z,52.85
2019-06-08T21:21:59.150Z,53.30
2019-06-08T21:24:31.818Z,53.57
2019-06-08T21:27:08.006Z,53.49
2019-06-08T21:29:49.435Z,53.96
2019-06-08T21:32:17.677Z,54.22
2019-06-08T21:34:52.655Z,54.64
2019-06-08T21:37:28.857Z,54.94
2019-06-08T21:40:04.188Z,54.98
2019-06-08T21:42:37.695Z,54.86
2019-06-08T21:45:11.210Z,54.79
2019-06-08T21:47:44.502Z,54.68
2019-06-08T21:50:18.611Z,54.70
2019-06-08T21:52:53.182Z,55.17
2019-06-08T21:55:28.030Z,55.30
2019-06-08T21:58:02.070Z,55.99
2019-06-08T22:00:40.328Z,56.54
2019-06-08T22:03:12.519Z,56.81
2019-06-08T22:05:49.780Z,56.82
2019-06-08T22:08:23.594Z,57.32
2019-06-08T22:10:59.018Z,57.49
2019-06-08T22:13:31.796Z,57.66
2019-06-08T22:16:07.754Z,57.75
2019-06-08T22:18:39.938Z,57.95
2019-06-08T22:21:13.290Z,58.14
2019-06-08T22:23:47.647Z,58.20
2019-06-08T22:26:20.994Z,58.33
2019-06-08T22:28:55.368Z,58.51
2019-06-08T22:31:28.812Z,58.59
2019-06-08T22:34:04.972Z,58.67
2019-06-08T22:36:38.728Z,58.83
2019-06-08T22:39:12.038Z,59.05
2019-06-08T22:41:47.665Z,59.12
2019-06-08T22:44:20.606Z,59.25
2019-06-08T22:46:55.366Z,59.64
2019-06-08T22:49:29.345Z,59.57
2019-06-08T22:52:04.300Z,59.73
2019-06-08T22:54:38.444Z,59.92
2019-06-08T22:57:13.049Z,59.96
2019-06-08T22:59:48.914Z,60.25
2019-06-08T23:02:23.206Z,60.46
2019-06-08T23:04:59.531Z,60.48
2019-06-08T23:07:33.793Z,60.65
2019-06-08T23:10:09.003Z,60.91
2019-06-08T23:12:43.382Z,60.98
2019-06-08T23:15:18.353Z,61.25
2019-06-08T23:17:52.220Z,61.15
2019-06-08T23:20:27.619Z,61.10
2019-06-08T23:23:03.070Z,61.26
2019-06-08T23:25:37.481Z,61.65
2019-06-08T23:28:11.817Z,61.05
2019-06-08T23:31:01.156Z,61.50
2019-06-08T23:33:23.184Z,62.43
2019-06-08T23:36:35.187Z,60.22
2019-06-08T23:38:31.517Z,53.64
2019-06-08T23:41:05.602Z,54.63
2019-06-08T23:43:39.054Z,56.02
2019-06-08T23:46:12.515Z,56.89
2019-06-08T23:48:48.421Z,57.40
2019-06-08T23:51:21.183Z,58.14
2019-06-08T23:53:55.070Z,58.45
2019-06-08T23:56:31.044Z,58.73
2019-06-08T23:59:07.601Z,59.26
